sensor_id;sensor_type;location;lat;lon;timestamp;P1;durP1;ratioP1;P2;durP2;ratioP2
22287;SDS011;11312;51.464;6.968;2023-02-28T00:00:15;7.85;;;3.45;;
22287;SDS011;11312;51.464;6.968;2023-02-28T00:02:42;7.63;;;2.90;;
22287;SDS011;11312;51.464;6.968;2023-02-28T00:05:09;6.95;;;2.80;;
22287;SDS011;11312;51.464;6.968;2023-02-28T00:07:35;6.82;;;2.78;;
22287;SDS011;11312;51.464;6.968;2023-02-28T00:10:02;7.63;;;3.00;;
22287;SDS011;11312;51.464;6.968;2023-02-28T00:12:28;7.65;;;3.05;;
22287;SDS011;11312;51.464;6.968;2023-02-28T00:14:53;7.97;;;3.28;;
22287;SDS011;11312;51.464;6.968;2023-02-28T00:17:19;7.82;;;3.10;;
22287;SDS011;11312;51.464;6.968;2023-02-28T00:19:47;7.05;;;2.70;;
22287;SDS011;11312;51.464;6.968;2023-02-28T00:22:13;6.47;;;2.58;;
22287;SDS011;11312;51.464;6.968;2023-02-28T00:24:39;7.03;;;2.97;;
22287;SDS011;11312;51.464;6.968;2023-02-28T00:27:05;7.53;;;3.08;;
22287;SDS011;11312;51.464;6.968;2023-02-28T00:29:31;7.97;;;3.15;;
22287;SDS011;11312;51.464;6.968;2023-02-28T00:31:57;8.45;;;3.38;;
22287;SDS011;11312;51.464;6.968;2023-02-28T00:34:23;7.60;;;3.10;;
22287;SDS011;11312;51.464;6.968;2023-02-28T00:36:48;7.45;;;3.00;;
22287;SDS011;11312;51.464;6.968;2023-02-28T00:39:14;8.52;;;3.30;;
22287;SDS011;11312;51.464;6.968;2023-02-28T00:41:40;7.53;;;2.90;;
22287;SDS011;11312;51.464;6.968;2023-02-28T00:44:06;11.43;;;3.28;;
22287;SDS011;11312;51.464;6.968;2023-02-28T00:46:31;8.30;;;3.55;;
22287;SDS011;11312;51.464;6.968;2023-02-28T00:48:57;7.20;;;2.85;;
22287;SDS011;11312;51.464;6.968;2023-02-28T00:51:23;8.10;;;3.42;;
22287;SDS011;11312;51.464;6.968;2023-02-28T00:53:48;8.25;;;3.13;;
22287;SDS011;11312;51.464;6.968;2023-02-28T00:56:14;6.72;;;2.67;;
22287;SDS011;11312;51.464;6.968;2023-02-28T00:58:40;7.50;;;2.85;;
22287;SDS011;11312;51.464;6.968;2023-02-28T01:01:06;9.35;;;3.72;;
22287;SDS011;11312;51.464;6.968;2023-02-28T01:03:32;8.20;;;3.28;;
22287;SDS011;11312;51.464;6.968;2023-02-28T01:05:57;8.98;;;3.80;;
22287;SDS011;11312;51.464;6.968;2023-02-28T01:08:23;9.15;;;3.50;;
22287;SDS011;11312;51.464;6.968;2023-02-28T01:10:49;8.88;;;3.38;;
22287;SDS011;11312;51.464;6.968;2023-02-28T01:13:15;7.93;;;3.22;;
22287;SDS011;11312;51.464;6.968;2023-02-28T01:15:42;7.55;;;3.10;;
22287;SDS011;11312;51.464;6.968;2023-02-28T01:18:11;8.05;;;3.38;;
22287;SDS011;11312;51.464;6.968;2023-02-28T01:20:37;8.07;;;3.50;;
22287;SDS011;11312;51.464;6.968;2023-02-28T01:23:03;7.78;;;3.00;;
22287;SDS011;11312;51.464;6.968;2023-02-28T01:25:28;8.18;;;3.03;;
22287;SDS011;11312;51.464;6.968;2023-02-28T01:27:54;7.82;;;3.20;;
22287;SDS011;11312;51.464;6.968;2023-02-28T01:30:20;7.13;;;2.70;;
22287;SDS011;11312;51.464;6.968;2023-02-28T01:32:46;7.03;;;2.72;;
22287;SDS011;11312;51.464;6.968;2023-02-28T01:35:11;8.48;;;3.40;;
22287;SDS011;11312;51.464;6.968;2023-02-28T01:37:37;7.13;;;2.92;;
22287;SDS011;11312;51.464;6.968;2023-02-28T01:40:03;8.60;;;3.50;;
22287;SDS011;11312;51.464;6.968;2023-02-28T01:42:29;10.30;;;4.18;;
22287;SDS011;11312;51.464;6.968;2023-02-28T01:44:57;8.45;;;3.45;;
22287;SDS011;11312;51.464;6.968;2023-02-28T01:47:23;7.13;;;2.80;;
22287;SDS011;11312;51.464;6.968;2023-02-28T01:49:52;7.15;;;2.60;;
22287;SDS011;11312;51.464;6.968;2023-02-28T01:52:18;7.28;;;2.85;;
22287;SDS011;11312;51.464;6.968;2023-02-28T01:54:45;6.82;;;2.78;;
22287;SDS011;11312;51.464;6.968;2023-02-28T01:57:16;7.38;;;3.05;;
22287;SDS011;11312;51.464;6.968;2023-02-28T01:59:54;9.45;;;3.92;;
22287;SDS011;11312;51.464;6.968;2023-02-28T02:02:26;9.27;;;3.28;;
22287;SDS011;11312;51.464;6.968;2023-02-28T02:07:21;7.20;;;2.85;;
22287;SDS011;11312;51.464;6.968;2023-02-28T02:09:48;7.05;;;2.92;;
22287;SDS011;11312;51.464;6.968;2023-02-28T02:15:03;7.75;;;3.13;;
22287;SDS011;11312;51.464;6.968;2023-02-28T02:17:52;6.38;;;2.55;;
22287;SDS011;11312;51.464;6.968;2023-02-28T02:20:29;9.00;;;4.43;;
22287;SDS011;11312;51.464;6.968;2023-02-28T02:23:30;8.20;;;3.30;;
22287;SDS011;11312;51.464;6.968;2023-02-28T02:29:21;6.60;;;2.65;;
22287;SDS011;11312;51.464;6.968;2023-02-28T02:34:40;6.68;;;2.65;;
22287;SDS011;11312;51.464;6.968;2023-02-28T02:37:28;7.00;;;2.90;;
22287;SDS011;11312;51.464;6.968;2023-02-28T02:45:32;6.88;;;2.75;;
22287;SDS011;11312;51.464;6.968;2023-02-28T02:48:03;7.10;;;2.78;;
22287;SDS011;11312;51.464;6.968;2023-02-28T02:50:35;7.38;;;2.95;;
22287;SDS011;11312;51.464;6.968;2023-02-28T02:53:04;7.40;;;3.00;;
22287;SDS011;11312;51.464;6.968;2023-02-28T02:55:33;7.32;;;2.85;;
22287;SDS011;11312;51.464;6.968;2023-02-28T02:58:04;7.90;;;3.17;;
22287;SDS011;11312;51.464;6.968;2023-02-28T03:00:45;7.28;;;2.92;;
22287;SDS011;11312;51.464;6.968;2023-02-28T03:03:20;12.68;;;3.95;;
22287;SDS011;11312;51.464;6.968;2023-02-28T03:05:53;8.02;;;3.28;;
22287;SDS011;11312;51.464;6.968;2023-02-28T03:08:21;6.95;;;2.72;;
22287;SDS011;11312;51.464;6.968;2023-02-28T03:10:50;8.18;;;3.47;;
22287;SDS011;11312;51.464;6.968;2023-02-28T03:24:32;8.73;;;3.70;;
22287;SDS011;11312;51.464;6.968;2023-02-28T03:27:23;8.25;;;3.33;;
22287;SDS011;11312;51.464;6.968;2023-02-28T03:33:08;7.72;;;3.17;;
22287;SDS011;11312;51.464;6.968;2023-02-28T03:35:47;7.28;;;3.13;;
22287;SDS011;11312;51.464;6.968;2023-02-28T03:38:18;7.90;;;3.45;;
22287;SDS011;11312;51.464;6.968;2023-02-28T03:41:06;8.20;;;3.35;;
22287;SDS011;11312;51.464;6.968;2023-02-28T03:43:40;7.20;;;3.13;;
22287;SDS011;11312;51.464;6.968;2023-02-28T03:46:10;7.97;;;3.17;;
22287;SDS011;11312;51.464;6.968;2023-02-28T03:48:42;8.88;;;3.17;;
22287;SDS011;11312;51.464;6.968;2023-02-28T03:51:14;8.27;;;3.60;;
22287;SDS011;11312;51.464;6.968;2023-02-28T03:53:53;8.05;;;3.55;;
22287;SDS011;11312;51.464;6.968;2023-02-28T03:56:45;8.00;;;3.22;;
22287;SDS011;11312;51.464;6.968;2023-02-28T03:59:15;9.00;;;3.40;;
22287;SDS011;11312;51.464;6.968;2023-02-28T04:01:49;7.82;;;3.08;;
22287;SDS011;11312;51.464;6.968;2023-02-28T04:04:16;8.50;;;3.35;;
22287;SDS011;11312;51.464;6.968;2023-02-28T04:06:42;8.40;;;3.20;;
22287;SDS011;11312;51.464;6.968;2023-02-28T04:09:11;8.38;;;3.70;;
22287;SDS011;11312;51.464;6.968;2023-02-28T04:11:51;8.02;;;3.28;;
22287;SDS011;11312;51.464;6.968;2023-02-28T04:14:17;7.63;;;3.45;;
22287;SDS011;11312;51.464;6.968;2023-02-28T04:16:43;8.60;;;3.80;;
22287;SDS011;11312;51.464;6.968;2023-02-28T04:19:10;10.10;;;4.63;;
22287;SDS011;11312;51.464;6.968;2023-02-28T04:21:38;7.28;;;2.95;;
22287;SDS011;11312;51.464;6.968;2023-02-28T04:24:06;7.63;;;3.10;;
22287;SDS011;11312;51.464;6.968;2023-02-28T04:26:33;8.30;;;3.53;;
22287;SDS011;11312;51.464;6.968;2023-02-28T04:29:01;8.13;;;3.42;;
22287;SDS011;11312;51.464;6.968;2023-02-28T04:31:29;8.68;;;3.67;;
22287;SDS011;11312;51.464;6.968;2023-02-28T04:33:55;7.65;;;3.28;;
22287;SDS011;11312;51.464;6.968;2023-02-28T04:36:21;8.38;;;3.38;;
22287;SDS011;11312;51.464;6.968;2023-02-28T04:38:48;7.82;;;3.25;;
22287;SDS011;11312;51.464;6.968;2023-02-28T04:41:14;7.20;;;2.83;;
22287;SDS011;11312;51.464;6.968;2023-02-28T04:43:41;7.15;;;2.80;;
22287;SDS011;11312;51.464;6.968;2023-02-28T04:46:07;9.30;;;4.20;;
22287;SDS011;11312;51.464;6.968;2023-02-28T04:48:35;8.20;;;3.33;;
22287;SDS011;11312;51.464;6.968;2023-02-28T04:51:06;8.90;;;3.72;;
22287;SDS011;11312;51.464;6.968;2023-02-28T04:53:33;8.68;;;3.72;;
22287;SDS011;11312;51.464;6.968;2023-02-28T04:56:00;9.63;;;4.18;;
22287;SDS011;11312;51.464;6.968;2023-02-28T04:58:26;8.50;;;3.63;;
22287;SDS011;11312;51.464;6.968;2023-02-28T05:00:53;9.35;;;3.85;;
22287;SDS011;11312;51.464;6.968;2023-02-28T05:03:20;8.82;;;3.83;;
22287;SDS011;11312;51.464;6.968;2023-02-28T05:05:47;8.85;;;3.80;;
22287;SDS011;11312;51.464;6.968;2023-02-28T05:08:12;9.48;;;3.60;;
22287;SDS011;11312;51.464;6.968;2023-02-28T05:10:39;8.73;;;3.70;;
22287;SDS011;11312;51.464;6.968;2023-02-28T05:13:05;8.68;;;3.60;;
22287;SDS011;11312;51.464;6.968;2023-02-28T05:15:30;9.23;;;3.67;;
22287;SDS011;11312;51.464;6.968;2023-02-28T05:17:56;11.38;;;4.93;;
22287;SDS011;11312;51.464;6.968;2023-02-28T05:20:21;14.02;;;5.15;;
22287;SDS011;11312;51.464;6.968;2023-02-28T05:22:47;8.40;;;3.20;;
22287;SDS011;11312;51.464;6.968;2023-02-28T05:25:18;9.25;;;3.92;;
22287;SDS011;11312;51.464;6.968;2023-02-28T05:27:46;8.40;;;3.40;;
22287;SDS011;11312;51.464;6.968;2023-02-28T05:30:12;8.27;;;3.38;;
22287;SDS011;11312;51.464;6.968;2023-02-28T05:32:38;7.95;;;3.13;;
22287;SDS011;11312;51.464;6.968;2023-02-28T05:35:09;8.85;;;3.70;;
22287;SDS011;11312;51.464;6.968;2023-02-28T05:37:36;8.32;;;3.35;;
22287;SDS011;11312;51.464;6.968;2023-02-28T05:40:03;8.10;;;3.25;;
22287;SDS011;11312;51.464;6.968;2023-02-28T05:42:31;8.10;;;3.10;;
22287;SDS011;11312;51.464;6.968;2023-02-28T05:44:57;8.70;;;3.67;;
22287;SDS011;11312;51.464;6.968;2023-02-28T05:47:23;9.75;;;4.30;;
22287;SDS011;11312;51.464;6.968;2023-02-28T05:49:48;8.68;;;3.70;;
22287;SDS011;11312;51.464;6.968;2023-02-28T05:52:14;7.90;;;3.40;;
22287;SDS011;11312;51.464;6.968;2023-02-28T05:54:40;8.27;;;3.33;;
22287;SDS011;11312;51.464;6.968;2023-02-28T05:57:06;9.65;;;3.95;;
22287;SDS011;11312;51.464;6.968;2023-02-28T05:59:31;11.68;;;3.95;;
22287;SDS011;11312;51.464;6.968;2023-02-28T06:01:57;9.20;;;3.92;;
22287;SDS011;11312;51.464;6.968;2023-02-28T06:04:23;8.75;;;3.50;;
22287;SDS011;11312;51.464;6.968;2023-02-28T06:06:49;9.00;;;3.50;;
22287;SDS011;11312;51.464;6.968;2023-02-28T06:09:15;8.30;;;3.45;;
22287;SDS011;11312;51.464;6.968;2023-02-28T06:11:41;9.45;;;4.03;;
22287;SDS011;11312;51.464;6.968;2023-02-28T06:14:06;7.72;;;3.22;;
22287;SDS011;11312;51.464;6.968;2023-02-28T06:16:34;7.40;;;2.95;;
22287;SDS011;11312;51.464;6.968;2023-02-28T06:19:02;8.35;;;3.72;;
22287;SDS011;11312;51.464;6.968;2023-02-28T06:21:28;8.82;;;3.72;;
22287;SDS011;11312;51.464;6.968;2023-02-28T06:23:55;8.80;;;3.65;;
22287;SDS011;11312;51.464;6.968;2023-02-28T06:26:22;8.75;;;3.80;;
22287;SDS011;11312;51.464;6.968;2023-02-28T06:28:48;8.95;;;3.60;;
22287;SDS011;11312;51.464;6.968;2023-02-28T06:31:15;8.60;;;3.60;;
22287;SDS011;11312;51.464;6.968;2023-02-28T06:33:42;8.13;;;3.35;;
22287;SDS011;11312;51.464;6.968;2023-02-28T06:36:08;9.95;;;4.03;;
22287;SDS011;11312;51.464;6.968;2023-02-28T06:38:35;7.53;;;3.05;;
22287;SDS011;11312;51.464;6.968;2023-02-28T06:41:01;9.23;;;3.88;;
22287;SDS011;11312;51.464;6.968;2023-02-28T06:43:28;8.95;;;3.47;;
22287;SDS011;11312;51.464;6.968;2023-02-28T06:45:55;8.57;;;3.63;;
22287;SDS011;11312;51.464;6.968;2023-02-28T06:48:22;8.32;;;3.47;;
22287;SDS011;11312;51.464;6.968;2023-02-28T06:50:49;9.18;;;4.00;;
22287;SDS011;11312;51.464;6.968;2023-02-28T06:53:14;8.10;;;3.30;;
22287;SDS011;11312;51.464;6.968;2023-02-28T06:55:40;8.98;;;3.90;;
22287;SDS011;11312;51.464;6.968;2023-02-28T06:58:06;8.32;;;3.53;;
22287;SDS011;11312;51.464;6.968;2023-02-28T07:00:44;9.00;;;3.50;;
22287;SDS011;11312;51.464;6.968;2023-02-28T07:03:10;8.27;;;3.40;;
22287;SDS011;11312;51.464;6.968;2023-02-28T07:05:37;8.30;;;3.30;;
22287;SDS011;11312;51.464;6.968;2023-02-28T07:08:04;7.90;;;3.15;;
22287;SDS011;11312;51.464;6.968;2023-02-28T07:10:31;8.15;;;3.28;;
22287;SDS011;11312;51.464;6.968;2023-02-28T07:12:58;9.20;;;3.95;;
22287;SDS011;11312;51.464;6.968;2023-02-28T07:15:24;9.05;;;3.58;;
22287;SDS011;11312;51.464;6.968;2023-02-28T07:17:49;7.80;;;3.08;;
22287;SDS011;11312;51.464;6.968;2023-02-28T07:20:15;8.18;;;3.40;;
22287;SDS011;11312;51.464;6.968;2023-02-28T07:22:41;8.55;;;3.50;;
22287;SDS011;11312;51.464;6.968;2023-02-28T07:25:07;7.90;;;3.17;;
22287;SDS011;11312;51.464;6.968;2023-02-28T07:27:33;8.02;;;3.30;;
22287;SDS011;11312;51.464;6.968;2023-02-28T07:29:59;7.63;;;3.10;;
22287;SDS011;11312;51.464;6.968;2023-02-28T07:32:26;8.43;;;3.25;;
22287;SDS011;11312;51.464;6.968;2023-02-28T07:34:53;7.70;;;2.92;;
22287;SDS011;11312;51.464;6.968;2023-02-28T07:37:19;7.47;;;3.05;;
22287;SDS011;11312;51.464;6.968;2023-02-28T07:39:45;8.63;;;3.38;;
22287;SDS011;11312;51.464;6.968;2023-02-28T07:42:10;7.97;;;3.42;;
22287;SDS011;11312;51.464;6.968;2023-02-28T07:44:38;8.80;;;3.47;;
22287;SDS011;11312;51.464;6.968;2023-02-28T07:47:08;8.18;;;3.38;;
22287;SDS011;11312;51.464;6.968;2023-02-28T07:49:35;7.85;;;3.17;;
22287;SDS011;11312;51.464;6.968;2023-02-28T07:52:01;7.57;;;3.08;;
22287;SDS011;11312;51.464;6.968;2023-02-28T07:54:31;8.15;;;3.25;;
22287;SDS011;11312;51.464;6.968;2023-02-28T07:56:56;9.23;;;3.45;;
22287;SDS011;11312;51.464;6.968;2023-02-28T07:59:22;7.88;;;3.17;;
22287;SDS011;11312;51.464;6.968;2023-02-28T08:01:48;8.25;;;3.40;;
22287;SDS011;11312;51.464;6.968;2023-02-28T08:04:15;7.30;;;2.63;;
22287;SDS011;11312;51.464;6.968;2023-02-28T08:06:42;8.40;;;3.50;;
22287;SDS011;11312;51.464;6.968;2023-02-28T08:09:07;6.28;;;2.60;;
22287;SDS011;11312;51.464;6.968;2023-02-28T08:11:33;6.35;;;2.50;;
22287;SDS011;11312;51.464;6.968;2023-02-28T08:13:58;6.43;;;2.72;;
22287;SDS011;11312;51.464;6.968;2023-02-28T08:16:24;6.43;;;2.40;;
22287;SDS011;11312;51.464;6.968;2023-02-28T08:18:50;6.32;;;2.30;;
22287;SDS011;11312;51.464;6.968;2023-02-28T08:21:16;6.25;;;2.38;;
22287;SDS011;11312;51.464;6.968;2023-02-28T08:23:42;5.70;;;2.33;;
22287;SDS011;11312;51.464;6.968;2023-02-28T08:26:08;5.53;;;2.20;;
22287;SDS011;11312;51.464;6.968;2023-02-28T08:28:33;4.38;;;1.95;;
22287;SDS011;11312;51.464;6.968;2023-02-28T08:30:59;5.85;;;2.33;;
22287;SDS011;11312;51.464;6.968;2023-02-28T08:33:26;6.72;;;2.47;;
22287;SDS011;11312;51.464;6.968;2023-02-28T08:35:55;5.72;;;2.30;;
22287;SDS011;11312;51.464;6.968;2023-02-28T08:38:22;3.80;;;1.77;;
22287;SDS011;11312;51.464;6.968;2023-02-28T08:40:48;4.90;;;2.03;;
22287;SDS011;11312;51.464;6.968;2023-02-28T08:43:14;4.35;;;2.17;;
22287;SDS011;11312;51.464;6.968;2023-02-28T08:45:40;9.40;;;2.03;;
22287;SDS011;11312;51.464;6.968;2023-02-28T08:48:05;4.55;;;2.00;;
22287;SDS011;11312;51.464;6.968;2023-02-28T08:50:31;3.33;;;1.70;;
22287;SDS011;11312;51.464;6.968;2023-02-28T08:52:56;3.00;;;1.70;;
22287;SDS011;11312;51.464;6.968;2023-02-28T08:55:22;2.75;;;1.52;;
22287;SDS011;11312;51.464;6.968;2023-02-28T08:57:48;3.60;;;1.75;;
22287;SDS011;11312;51.464;6.968;2023-02-28T09:00:13;2.25;;;1.40;;
22287;SDS011;11312;51.464;6.968;2023-02-28T09:02:40;2.42;;;1.42;;
22287;SDS011;11312;51.464;6.968;2023-02-28T09:05:07;3.47;;;1.70;;
22287;SDS011;11312;51.464;6.968;2023-02-28T09:07:33;2.38;;;1.50;;
22287;SDS011;11312;51.464;6.968;2023-02-28T09:09:59;1.60;;;1.30;;
22287;SDS011;11312;51.464;6.968;2023-02-28T09:12:25;2.05;;;1.35;;
22287;SDS011;11312;51.464;6.968;2023-02-28T09:14:56;1.60;;;1.20;;
22287;SDS011;11312;51.464;6.968;2023-02-28T09:17:22;1.40;;;1.13;;
22287;SDS011;11312;51.464;6.968;2023-02-28T09:19:48;2.50;;;1.27;;
22287;SDS011;11312;51.464;6.968;2023-02-28T09:22:14;1.75;;;1.23;;
22287;SDS011;11312;51.464;6.968;2023-02-28T09:24:39;1.48;;;1.05;;
22287;SDS011;11312;51.464;6.968;2023-02-28T09:27:05;1.23;;;1.02;;
22287;SDS011;11312;51.464;6.968;2023-02-28T09:29:32;0.80;;;0.80;;
22287;SDS011;11312;51.464;6.968;2023-02-28T09:31:58;0.80;;;0.80;;
22287;SDS011;11312;51.464;6.968;2023-02-28T09:34:25;0.75;;;0.75;;
22287;SDS011;11312;51.464;6.968;2023-02-28T09:36:51;1.02;;;0.93;;
22287;SDS011;11312;51.464;6.968;2023-02-28T09:39:19;0.70;;;0.70;;
22287;SDS011;11312;51.464;6.968;2023-02-28T09:41:50;1.08;;;0.90;;
22287;SDS011;11312;51.464;6.968;2023-02-28T09:44:22;1.77;;;1.23;;
22287;SDS011;11312;51.464;6.968;2023-02-28T09:46:51;1.85;;;1.20;;
22287;SDS011;11312;51.464;6.968;2023-02-28T09:49:25;3.38;;;1.67;;
22287;SDS011;11312;51.464;6.968;2023-02-28T09:51:59;2.83;;;1.80;;
22287;SDS011;11312;51.464;6.968;2023-02-28T09:54:28;1.23;;;1.10;;
22287;SDS011;11312;51.464;6.968;2023-02-28T10:09:05;1.42;;;1.13;;
22287;SDS011;11312;51.464;6.968;2023-02-28T10:11:26;1.15;;;1.00;;
22287;SDS011;11312;51.464;6.968;2023-02-28T10:17:20;2.28;;;1.35;;
22287;SDS011;11312;51.464;6.968;2023-02-28T10:24:49;1.13;;;1.00;;
22287;SDS011;11312;51.464;6.968;2023-02-28T10:27:23;1.30;;;1.00;;
22287;SDS011;11312;51.464;6.968;2023-02-28T10:29:51;1.15;;;1.00;;
22287;SDS011;11312;51.464;6.968;2023-02-28T10:32:19;1.25;;;1.05;;
22287;SDS011;11312;51.464;6.968;2023-02-28T10:34:51;1.10;;;1.00;;
22287;SDS011;11312;51.464;6.968;2023-02-28T10:37:20;1.40;;;1.13;;
22287;SDS011;11312;51.464;6.968;2023-02-28T10:39:46;1.20;;;1.10;;
22287;SDS011;11312;51.464;6.968;2023-02-28T10:42:19;2.92;;;1.55;;
22287;SDS011;11312;51.464;6.968;2023-02-28T10:45:33;2.08;;;1.38;;
22287;SDS011;11312;51.464;6.968;2023-02-28T10:48:02;2.45;;;1.38;;
22287;SDS011;11312;51.464;6.968;2023-02-28T10:50:42;2.53;;;1.50;;
22287;SDS011;11312;51.464;6.968;2023-02-28T10:55:55;2.75;;;1.60;;
22287;SDS011;11312;51.464;6.968;2023-02-28T11:01:16;4.35;;;2.03;;
22287;SDS011;11312;51.464;6.968;2023-02-28T11:03:46;4.30;;;1.90;;
22287;SDS011;11312;51.464;6.968;2023-02-28T11:06:15;2.70;;;1.50;;
22287;SDS011;11312;51.464;6.968;2023-02-28T11:08:54;3.08;;;1.60;;
22287;SDS011;11312;51.464;6.968;2023-02-28T11:11:22;2.40;;;1.48;;
22287;SDS011;11312;51.464;6.968;2023-02-28T11:13:54;2.03;;;1.40;;
22287;SDS011;11312;51.464;6.968;2023-02-28T11:16:21;2.45;;;1.40;;
22287;SDS011;11312;51.464;6.968;2023-02-28T11:18:59;2.00;;;1.30;;
22287;SDS011;11312;51.464;6.968;2023-02-28T11:21:27;2.25;;;1.40;;
22287;SDS011;11312;51.464;6.968;2023-02-28T11:24:37;1.50;;;1.30;;
22287;SDS011;11312;51.464;6.968;2023-02-28T11:26:55;1.33;;;1.20;;
22287;SDS011;11312;51.464;6.968;2023-02-28T11:29:22;2.60;;;1.40;;
22287;SDS011;11312;51.464;6.968;2023-02-28T11:34:36;5.15;;;1.05;;
22287;SDS011;11312;51.464;6.968;2023-02-28T11:37:03;0.90;;;0.90;;
22287;SDS011;11312;51.464;6.968;2023-02-28T11:39:32;1.10;;;1.00;;
22287;SDS011;11312;51.464;6.968;2023-02-28T11:57:18;1.95;;;0.80;;
22287;SDS011;11312;51.464;6.968;2023-02-28T11:59:59;0.70;;;0.60;;
22287;SDS011;11312;51.464;6.968;2023-02-28T12:02:52;0.60;;;0.60;;
22287;SDS011;11312;51.464;6.968;2023-02-28T12:08:00;0.60;;;0.60;;
22287;SDS011;11312;51.464;6.968;2023-02-28T12:10:35;0.73;;;0.73;;
22287;SDS011;11312;51.464;6.968;2023-02-28T12:16:15;1.80;;;0.93;;
22287;SDS011;11312;51.464;6.968;2023-02-28T12:19:15;1.30;;;1.08;;
22287;SDS011;11312;51.464;6.968;2023-02-28T12:24:38;1.23;;;1.10;;
22287;SDS011;11312;51.464;6.968;2023-02-28T12:27:17;2.65;;;1.30;;
22287;SDS011;11312;51.464;6.968;2023-02-28T12:29:50;1.23;;;1.10;;
22287;SDS011;11312;51.464;6.968;2023-02-28T12:32:23;0.95;;;0.95;;
22287;SDS011;11312;51.464;6.968;2023-02-28T12:35:04;0.60;;;0.60;;
22287;SDS011;11312;51.464;6.968;2023-02-28T12:37:57;1.20;;;1.10;;
22287;SDS011;11312;51.464;6.968;2023-02-28T12:40:42;2.08;;;1.27;;
22287;SDS011;11312;51.464;6.968;2023-02-28T12:43:19;1.58;;;1.15;;
22287;SDS011;11312;51.464;6.968;2023-02-28T12:45:48;1.13;;;1.00;;
22287;SDS011;11312;51.464;6.968;2023-02-28T12:48:24;1.10;;;1.00;;
22287;SDS011;11312;51.464;6.968;2023-02-28T12:51:04;1.67;;;1.10;;
22287;SDS011;11312;51.464;6.968;2023-02-28T12:56:19;1.08;;;0.98;;
22287;SDS011;11312;51.464;6.968;2023-02-28T12:59:01;0.80;;;0.80;;
22287;SDS011;11312;51.464;6.968;2023-02-28T13:04:21;1.38;;;1.00;;
22287;SDS011;11312;51.464;6.968;2023-02-28T13:07:15;1.05;;;0.82;;
22287;SDS011;11312;51.464;6.968;2023-02-28T13:09:54;0.85;;;0.85;;
22287;SDS011;11312;51.464;6.968;2023-02-28T13:12:21;1.05;;;0.88;;
22287;SDS011;11312;51.464;6.968;2023-02-28T13:14:48;1.98;;;1.05;;
22287;SDS011;11312;51.464;6.968;2023-02-28T13:17:21;1.58;;;1.10;;
22287;SDS011;11312;51.464;6.968;2023-02-28T13:24:57;3.22;;;1.80;;
22287;SDS011;11312;51.464;6.968;2023-02-28T13:29:50;13.57;;;1.30;;
22287;SDS011;11312;51.464;6.968;2023-02-28T13:32:31;0.80;;;0.80;;
22287;SDS011;11312;51.464;6.968;2023-02-28T13:47:31;1.13;;;1.02;;
22287;SDS011;11312;51.464;6.968;2023-02-28T13:50:14;1.70;;;1.20;;
22287;SDS011;11312;51.464;6.968;2023-02-28T14:04:02;1.45;;;1.10;;
22287;SDS011;11312;51.464;6.968;2023-02-28T14:06:51;1.80;;;1.23;;
22287;SDS011;11312;51.464;6.968;2023-02-28T14:09:30;1.10;;;1.00;;
22287;SDS011;11312;51.464;6.968;2023-02-28T14:15:02;2.10;;;1.25;;
22287;SDS011;11312;51.464;6.968;2023-02-28T14:17:30;2.67;;;1.52;;
22287;SDS011;11312;51.464;6.968;2023-02-28T14:19:57;1.23;;;1.10;;
22287;SDS011;11312;51.464;6.968;2023-02-28T14:26:02;1.67;;;1.20;;
22287;SDS011;11312;51.464;6.968;2023-02-28T14:31:49;3.22;;;1.50;;
22287;SDS011;11312;51.464;6.968;2023-02-28T14:34:36;2.10;;;1.30;;
22287;SDS011;11312;51.464;6.968;2023-02-28T14:37:24;2.65;;;1.52;;
22287;SDS011;11312;51.464;6.968;2023-02-28T14:39:53;2.50;;;1.45;;
22287;SDS011;11312;51.464;6.968;2023-02-28T14:42:54;1.20;;;1.10;;
22287;SDS011;11312;51.464;6.968;2023-02-28T14:45:20;3.28;;;1.70;;
22287;SDS011;11312;51.464;6.968;2023-02-28T14:47:47;1.75;;;1.30;;
22287;SDS011;11312;51.464;6.968;2023-02-28T14:50:18;3.10;;;1.95;;
22287;SDS011;11312;51.464;6.968;2023-02-28T14:52:52;2.60;;;1.40;;
22287;SDS011;11312;51.464;6.968;2023-02-28T14:55:21;3.55;;;1.67;;
22287;SDS011;11312;51.464;6.968;2023-02-28T14:58:19;3.47;;;1.77;;
22287;SDS011;11312;51.464;6.968;2023-02-28T15:00:52;2.65;;;1.45;;
22287;SDS011;11312;51.464;6.968;2023-02-28T15:03:22;1.75;;;1.30;;
22287;SDS011;11312;51.464;6.968;2023-02-28T15:05:58;2.47;;;1.40;;
22287;SDS011;11312;51.464;6.968;2023-02-28T15:08:41;2.40;;;1.40;;
22287;SDS011;11312;51.464;6.968;2023-02-28T15:11:14;3.00;;;1.60;;
22287;SDS011;11312;51.464;6.968;2023-02-28T15:13:50;2.97;;;1.42;;
22287;SDS011;11312;51.464;6.968;2023-02-28T15:21:21;4.25;;;1.85;;
22287;SDS011;11312;51.464;6.968;2023-02-28T15:23:54;3.38;;;1.73;;
22287;SDS011;11312;51.464;6.968;2023-02-28T15:26:27;3.33;;;1.67;;
22287;SDS011;11312;51.464;6.968;2023-02-28T15:29:00;3.33;;;1.63;;
22287;SDS011;11312;51.464;6.968;2023-02-28T15:31:40;2.65;;;1.50;;
22287;SDS011;11312;51.464;6.968;2023-02-28T15:34:12;3.50;;;1.70;;
22287;SDS011;11312;51.464;6.968;2023-02-28T15:36:47;4.10;;;1.95;;
22287;SDS011;11312;51.464;6.968;2023-02-28T15:39:18;3.55;;;1.85;;
22287;SDS011;11312;51.464;6.968;2023-02-28T15:42:13;2.20;;;1.40;;
22287;SDS011;11312;51.464;6.968;2023-02-28T15:44:44;3.25;;;1.77;;
22287;SDS011;11312;51.464;6.968;2023-02-28T15:47:20;3.53;;;1.70;;
22287;SDS011;11312;51.464;6.968;2023-02-28T15:52:24;3.60;;;1.77;;
22287;SDS011;11312;51.464;6.968;2023-02-28T15:55:07;3.50;;;1.70;;
22287;SDS011;11312;51.464;6.968;2023-02-28T15:57:37;3.20;;;1.63;;
22287;SDS011;11312;51.464;6.968;2023-02-28T16:00:05;6.22;;;2.65;;
22287;SDS011;11312;51.464;6.968;2023-02-28T16:02:36;4.95;;;2.15;;
22287;SDS011;11312;51.464;6.968;2023-02-28T16:07:34;3.63;;;1.67;;
22287;SDS011;11312;51.464;6.968;2023-02-28T16:10:02;4.15;;;1.88;;
22287;SDS011;11312;51.464;6.968;2023-02-28T16:12:30;4.88;;;2.00;;
22287;SDS011;11312;51.464;6.968;2023-02-28T16:15:01;3.35;;;1.70;;
22287;SDS011;11312;51.464;6.968;2023-02-28T16:17:34;5.35;;;2.10;;
22287;SDS011;11312;51.464;6.968;2023-02-28T16:20:05;5.10;;;2.28;;
22287;SDS011;11312;51.464;6.968;2023-02-28T16:22:39;4.88;;;2.25;;
22287;SDS011;11312;51.464;6.968;2023-02-28T16:25:07;5.20;;;2.05;;
22287;SDS011;11312;51.464;6.968;2023-02-28T16:27:41;3.90;;;1.83;;
22287;SDS011;11312;51.464;6.968;2023-02-28T16:30:09;4.82;;;2.08;;
22287;SDS011;11312;51.464;6.968;2023-02-28T16:32:45;4.93;;;2.03;;
22287;SDS011;11312;51.464;6.968;2023-02-28T16:35:11;5.18;;;2.17;;
22287;SDS011;11312;51.464;6.968;2023-02-28T16:37:38;5.20;;;2.17;;
22287;SDS011;11312;51.464;6.968;2023-02-28T16:40:05;5.72;;;2.40;;
22287;SDS011;11312;51.464;6.968;2023-02-28T16:42:33;3.83;;;1.80;;
22287;SDS011;11312;51.464;6.968;2023-02-28T16:44:58;5.55;;;2.22;;
22287;SDS011;11312;51.464;6.968;2023-02-28T16:47:24;5.40;;;2.13;;
22287;SDS011;11312;51.464;6.968;2023-02-28T16:49:51;4.97;;;2.10;;
22287;SDS011;11312;51.464;6.968;2023-02-28T16:52:17;5.95;;;2.40;;
22287;SDS011;11312;51.464;6.968;2023-02-28T16:54:43;5.22;;;2.20;;
22287;SDS011;11312;51.464;6.968;2023-02-28T16:57:21;5.03;;;2.10;;
22287;SDS011;11312;51.464;6.968;2023-02-28T16:59:48;5.40;;;2.17;;
22287;SDS011;11312;51.464;6.968;2023-02-28T17:02:17;7.75;;;2.97;;
22287;SDS011;11312;51.464;6.968;2023-02-28T17:04:46;4.25;;;1.90;;
22287;SDS011;11312;51.464;6.968;2023-02-28T17:07:13;5.70;;;2.33;;
22287;SDS011;11312;51.464;6.968;2023-02-28T17:09:41;5.70;;;2.30;;
22287;SDS011;11312;51.464;6.968;2023-02-28T17:12:07;6.10;;;2.33;;
22287;SDS011;11312;51.464;6.968;2023-02-28T17:14:33;4.57;;;1.92;;
22287;SDS011;11312;51.464;6.968;2023-02-28T17:16:59;4.65;;;2.00;;
22287;SDS011;11312;51.464;6.968;2023-02-28T17:19:25;4.90;;;2.03;;
22287;SDS011;11312;51.464;6.968;2023-02-28T17:21:50;4.57;;;1.98;;
22287;SDS011;11312;51.464;6.968;2023-02-28T17:24:16;5.60;;;2.30;;